createdAt,value
2017-11-23T00:01:37.868Z,100074
2017-11-23T00:04:06.738Z,100068
2017-11-23T00:06:35.925Z,100063
2017-11-23T00:09:05.037Z,100051
2017-11-23T00:11:33.392Z,100053
2017-11-23T00:14:04.356Z,100048
2017-11-23T00:16:32.700Z,100031
2017-11-23T00:19:01.785Z,100033
2017-11-23T00:21:31.635Z,100039
2017-11-23T00:24:00.223Z,100031
2017-11-23T00:26:29.355Z,100040
2017-11-23T00:28:58.407Z,100031
2017-11-23T00:31:27.170Z,100043
2017-11-23T00:37:08.381Z,100048
2017-11-23T00:39:37.869Z,100049
2017-11-23T00:42:06.281Z,100054
2017-11-23T00:44:34.621Z,100052
2017-11-23T00:47:03.249Z,100054
2017-11-23T00:49:31.942Z,100060
2017-11-23T00:52:01.013Z,100062
2017-11-23T00:54:43.199Z,100054
2017-11-23T00:57:13.487Z,100053
2017-11-23T00:59:41.952Z,100054
2017-11-23T01:02:11.330Z,100045
2017-11-23T01:04:44.098Z,100050
2017-11-23T01:07:12.960Z,100044
2017-11-23T01:09:56.611Z,100052
2017-11-23T01:12:24.974Z,100034
2017-11-23T01:14:53.293Z,100048
2017-11-23T01:17:21.579Z,100034
2017-11-23T01:19:49.939Z,100044
2017-11-23T01:22:23.807Z,100035
2017-11-23T01:24:52.871Z,100045
2017-11-23T01:27:21.212Z,100048
2017-11-23T01:29:50.676Z,100046
2017-11-23T01:32:19.033Z,100045
2017-11-23T01:34:47.349Z,100029
2017-11-23T01:37:15.944Z,100028
2017-11-23T01:39:44.982Z,100018
2017-11-23T01:42:13.288Z,100012
2017-11-23T01:44:43.622Z,100009
2017-11-23T01:47:11.917Z,100030
2017-11-23T01:49:41.085Z,100032
2017-11-23T01:52:22.216Z,100039
2017-11-23T01:54:50.586Z,100034
2017-11-23T01:57:18.869Z,100031
2017-11-23T01:59:47.200Z,100021
2017-11-23T02:02:15.524Z,100009
2017-11-23T02:04:43.814Z,100024
2017-11-23T02:07:12.189Z,100019
2017-11-23T02:09:40.472Z,100019
2017-11-23T02:12:09.177Z,100007
2017-11-23T02:14:37.659Z,99998
2017-11-23T02:17:07.191Z,100003
2017-11-23T02:19:36.275Z,99992
2017-11-23T02:22:07.679Z,99991
2017-11-23T02:24:37.900Z,99984
2017-11-23T02:27:06.225Z,99987
2017-11-23T02:29:34.476Z,99994
2017-11-23T02:32:02.719Z,99992
2017-11-23T02:34:30.936Z,99996
2017-11-23T02:36:59.173Z,99991
2017-11-23T02:39:27.396Z,99989
2017-11-23T02:41:55.634Z,99982
2017-11-23T02:44:23.860Z,99977
2017-11-23T02:46:52.148Z,99980
2017-11-23T02:49:21.204Z,99989
2017-11-23T02:51:49.439Z,99978
2017-11-23T02:54:17.660Z,99986
2017-11-23T02:56:45.906Z,99985
2017-11-23T02:59:14.172Z,99986
2017-11-23T03:01:42.403Z,99994
2017-11-23T03:04:10.637Z,99987
2017-11-23T03:06:38.869Z,99992
2017-11-23T03:09:07.917Z,99990
2017-11-23T03:11:36.147Z,99991
2017-11-23T03:14:04.371Z,99976
2017-11-23T03:16:32.619Z,99977
2017-11-23T03:19:00.853Z,99990
2017-11-23T03:21:29.925Z,99985
2017-11-23T03:23:58.169Z,99990
2017-11-23T03:26:26.656Z,99980
2017-11-23T03:28:54.888Z,99971
2017-11-23T03:31:23.227Z,99971
2017-11-23T03:33:51.508Z,99954
2017-11-23T03:36:19.750Z,99956
2017-11-23T03:38:47.990Z,99971
2017-11-23T03:41:17.066Z,99963
2017-11-23T03:43:46.088Z,99951
2017-11-23T03:46:14.312Z,99956
2017-11-23T03:48:42.604Z,99948
2017-11-23T03:51:11.681Z,99945
2017-11-23T03:53:40.013Z,99943
2017-11-23T03:56:08.267Z,99935
2017-11-23T03:58:37.279Z,99933
2017-11-23T04:01:07.179Z,99925
2017-11-23T04:03:35.438Z,99911
2017-11-23T04:06:04.437Z,99914
2017-11-23T04:08:33.435Z,99916
2017-11-23T04:11:02.524Z,99909
2017-11-23T04:13:31.552Z,99909
2017-11-23T04:15:59.812Z,99906
2017-11-23T04:18:29.128Z,99901
2017-11-23T04:20:57.408Z,99906
2017-11-23T04:23:25.786Z,99897
2017-11-23T04:25:54.079Z,99889
2017-11-23T04:28:22.448Z,99886
2017-11-23T04:30:51.857Z,99900
2017-11-23T04:33:20.904Z,99896
2017-11-23T04:35:49.149Z,99902
2017-11-23T04:38:17.454Z,99892
2017-11-23T04:40:46.424Z,99894
2017-11-23T04:43:15.446Z,99894
2017-11-23T04:45:43.685Z,99895
2017-11-23T04:48:11.963Z,99886
2017-11-23T04:50:41.159Z,99879
2017-11-23T04:53:09.504Z,99879
2017-11-23T04:55:37.768Z,99889
2017-11-23T04:58:06.042Z,99879
2017-11-23T05:00:34.304Z,99876
2017-11-23T05:03:02.600Z,99868
2017-11-23T05:05:30.955Z,99867
2017-11-23T05:07:59.195Z,99861
2017-11-23T05:10:28.232Z,99867
2017-11-23T05:12:56.525Z,99866
2017-11-23T05:15:24.790Z,99871
2017-11-23T05:17:53.086Z,99874
2017-11-23T05:20:21.391Z,99870
2017-11-23T05:22:50.447Z,99869
2017-11-23T05:25:18.759Z,99867
2017-11-23T05:27:47.802Z,99861
2017-11-23T05:30:16.050Z,99861
2017-11-23T05:32:44.317Z,99860
2017-11-23T05:35:13.377Z,99859
2017-11-23T05:37:41.667Z,99861
2017-11-23T05:40:10.164Z,99861
2017-11-23T05:42:39.213Z,99850
2017-11-23T05:45:07.477Z,99837
2017-11-23T05:47:35.784Z,99841
2017-11-23T05:50:04.025Z,99841
2017-11-23T05:52:32.457Z,99845
2017-11-23T05:55:01.467Z,99842
2017-11-23T05:57:29.723Z,99845
2017-11-23T05:59:58.786Z,99847
2017-11-23T06:02:27.035Z,99846
2017-11-23T06:04:55.347Z,99848
2017-11-23T06:07:23.626Z,99851
2017-11-23T06:09:51.855Z,99852
2017-11-23T06:12:20.150Z,99851
2017-11-23T06:14:48.459Z,99843
2017-11-23T06:17:16.736Z,99834
2017-11-23T06:19:46.193Z,99830
2017-11-23T06:22:14.572Z,99829
2017-11-23T06:24:42.885Z,99830
2017-11-23T06:27:11.125Z,99830
2017-11-23T06:29:39.361Z,99836
2017-11-23T06:32:08.403Z,99861
2017-11-23T06:34:36.734Z,99871
2017-11-23T06:37:05.040Z,99879
2017-11-23T06:39:33.322Z,99883
2017-11-23T06:42:01.548Z,99880
2017-11-23T06:44:30.556Z,99870
2017-11-23T06:46:58.809Z,99862
2017-11-23T06:49:27.828Z,99869
2017-11-23T06:51:56.107Z,99855
2017-11-23T06:54:24.352Z,99845
2017-11-23T06:56:53.401Z,99849
2017-11-23T06:59:21.635Z,99868
2017-11-23T07:01:50.633Z,99859
2017-11-23T07:04:18.887Z,99851
2017-11-23T07:06:47.949Z,99848
2017-11-23T07:09:16.199Z,99837
2017-11-23T07:11:44.512Z,99856
2017-11-23T07:14:12.740Z,99860
2017-11-23T07:16:40.979Z,99859
2017-11-23T07:19:10.008Z,99849
2017-11-23T07:21:38.263Z,99849
2017-11-23T07:24:07.291Z,99847
2017-11-23T07:26:35.660Z,99855
2017-11-23T07:29:03.911Z,99845
2017-11-23T07:31:32.231Z,99846
2017-11-23T07:34:00.543Z,99837
2017-11-23T07:36:30.123Z,99842
2017-11-23T07:38:58.348Z,99843
2017-11-23T07:41:26.625Z,99831
2017-11-23T07:43:54.928Z,99813
2017-11-23T07:46:23.169Z,99821
2017-11-23T07:48:52.178Z,99820
2017-11-23T07:51:20.456Z,99802
2017-11-23T07:53:48.689Z,99804
2017-11-23T07:56:17.725Z,99822
2017-11-23T07:58:45.977Z,99822
2017-11-23T08:01:14.249Z,99798
2017-11-23T08:03:43.661Z,99794
2017-11-23T08:06:20.907Z,99800
2017-11-23T08:08:51.240Z,99811
2017-11-23T08:11:23.940Z,99812
2017-11-23T08:13:55.102Z,99809
2017-11-23T08:16:29.474Z,99792
2017-11-23T08:18:58.537Z,99781
2017-11-23T08:21:26.782Z,99803
2017-11-23T08:23:55.133Z,99812
2017-11-23T08:26:24.139Z,99821
2017-11-23T08:28:53.188Z,99809
2017-11-23T08:31:21.502Z,99817
2017-11-23T08:33:50.557Z,99808
2017-11-23T08:36:18.864Z,99809
2017-11-23T08:38:47.854Z,99817
2017-11-23T08:41:16.894Z,99807
2017-11-23T08:43:45.170Z,99797
2017-11-23T08:46:13.443Z,99802
2017-11-23T08:48:41.782Z,99786
2017-11-23T08:51:10.840Z,99786
2017-11-23T08:53:39.128Z,99788
2017-11-23T08:56:07.425Z,99801
2017-11-23T08:58:36.708Z,99797
2017-11-23T09:01:05.010Z,99785
2017-11-23T09:03:33.388Z,99787
2017-11-23T09:06:02.417Z,99784
2017-11-23T09:08:30.706Z,99784
2017-11-23T09:10:59.015Z,99775
2017-11-23T09:13:30.834Z,99782
2017-11-23T09:15:59.129Z,99771
2017-11-23T09:18:27.404Z,99776
2017-11-23T09:20:55.720Z,99779
2017-11-23T09:23:24.131Z,99774
2017-11-23T09:25:52.484Z,99754
2017-11-23T09:28:20.835Z,99764
2017-11-23T09:30:50.004Z,99760
2017-11-23T09:37:49.685Z,99777
2017-11-23T09:40:18.716Z,99783
2017-11-23T09:42:47.030Z,99781
2017-11-23T09:45:16.077Z,99779
2017-11-23T09:47:44.357Z,99770
2017-11-23T09:50:12.638Z,99758
2017-11-23T09:52:40.916Z,99751
2017-11-23T09:55:09.185Z,99754
2017-11-23T09:57:37.447Z,99750
2017-11-23T10:00:05.720Z,99765
2017-11-23T10:02:34.041Z,99762
2017-11-23T10:05:03.092Z,99760
2017-11-23T10:07:31.369Z,99760
2017-11-23T10:09:59.645Z,99758
2017-11-23T10:12:27.936Z,99762
2017-11-23T10:14:56.192Z,99755
2017-11-23T10:17:24.471Z,99753
2017-11-23T10:19:52.760Z,99756
2017-11-23T10:22:35.137Z,99737
2017-11-23T10:25:03.477Z,99739
2017-11-23T10:27:31.744Z,99744
2017-11-23T10:30:00.056Z,99734
2017-11-23T10:32:28.339Z,99744
2017-11-23T10:34:56.613Z,99734
2017-11-23T10:37:30.394Z,99719
2017-11-23T10:39:59.465Z,99728
2017-11-23T10:42:27.742Z,99728
2017-11-23T10:44:56.101Z,99731
2017-11-23T10:47:24.492Z,99721
2017-11-23T10:49:52.760Z,99728
2017-11-23T10:52:21.056Z,99715
2017-11-23T10:54:50.209Z,99735
2017-11-23T10:57:19.082Z,99716
2017-11-23T11:03:04.657Z,99708
2017-11-23T11:05:33.698Z,99708
2017-11-23T11:08:01.969Z,99706
2017-11-23T11:10:31.023Z,99713
2017-11-23T11:13:00.054Z,99708
2017-11-23T11:15:28.368Z,99708
2017-11-23T11:17:56.677Z,99710
2017-11-23T11:20:24.992Z,99708
2017-11-23T11:22:59.108Z,99706
2017-11-23T11:25:27.380Z,99701
2017-11-23T11:27:55.705Z,99708
2017-11-23T11:30:24.750Z,99716
2017-11-23T11:32:53.022Z,99710
2017-11-23T11:35:21.298Z,99708
2017-11-23T11:37:49.632Z,99706
2017-11-23T11:40:18.665Z,99719
2017-11-23T11:42:46.937Z,99706
2017-11-23T11:45:15.255Z,99710
2017-11-23T11:47:44.320Z,99718
2017-11-23T11:50:13.356Z,99710
2017-11-23T11:52:41.832Z,99719
2017-11-23T11:55:10.196Z,99718
2017-11-23T11:57:38.525Z,99719
2017-11-23T12:00:06.840Z,99712
2017-11-23T12:02:35.915Z,99731
2017-11-23T12:05:04.302Z,99733
2017-11-23T12:07:33.370Z,99720
2017-11-23T12:10:01.643Z,99719
2017-11-23T12:12:29.948Z,99730
2017-11-23T12:15:07.696Z,99731
2017-11-23T12:18:05.577Z,99727
2017-11-23T12:20:51.647Z,99727
2017-11-23T12:23:38.350Z,99740
2017-11-23T12:26:07.397Z,99744
2017-11-23T12:31:43.706Z,99747
2017-11-23T12:34:12.841Z,99733
2017-11-23T12:36:41.148Z,99744
2017-11-23T12:39:09.433Z,99762
2017-11-23T12:41:37.679Z,99749
2017-11-23T12:44:07.182Z,99750
2017-11-23T12:46:35.472Z,99772
2017-11-23T12:49:03.717Z,99769
2017-11-23T12:51:32.011Z,99766
2017-11-23T12:54:00.352Z,99777
2017-11-23T12:56:29.373Z,99785
2017-11-23T12:58:57.634Z,99788
2017-11-23T13:01:25.887Z,99773
2017-11-23T13:03:54.920Z,99787
2017-11-23T13:06:23.172Z,99769
2017-11-23T13:08:51.788Z,99782
2017-11-23T13:11:20.169Z,99791
2017-11-23T13:13:48.471Z,99787
2017-11-23T13:16:16.766Z,99785
2017-11-23T13:18:45.993Z,99788
2017-11-23T13:21:14.270Z,99795
2017-11-23T13:23:42.639Z,99808
2017-11-23T13:26:10.981Z,99803
2017-11-23T13:28:39.379Z,99803
2017-11-23T13:31:08.406Z,99818
2017-11-23T13:33:36.656Z,99797
2017-11-23T13:36:05.671Z,99805
2017-11-23T13:38:33.917Z,99820
2017-11-23T13:41:02.956Z,99822
2017-11-23T13:43:31.295Z,99844
2017-11-23T13:46:10.323Z,99831
2017-11-23T13:48:39.284Z,99835
2017-11-23T13:51:07.809Z,99842
2017-11-23T13:53:36.145Z,99852
2017-11-23T13:56:04.600Z,99866
2017-11-23T13:58:33.084Z,99864
2017-11-23T14:01:01.533Z,99866
2017-11-23T14:03:29.825Z,99858
2017-11-23T14:05:58.080Z,99866
2017-11-23T14:08:26.353Z,99860
2017-11-23T14:10:54.605Z,99863
2017-11-23T14:13:22.910Z,99867
2017-11-23T14:15:51.191Z,99861
2017-11-23T14:18:19.669Z,99872
2017-11-23T14:20:49.144Z,99871
2017-11-23T14:23:17.589Z,99879
2017-11-23T14:25:45.979Z,99881
2017-11-23T14:28:14.232Z,99871
2017-11-23T14:30:42.555Z,99877
2017-11-23T14:33:10.861Z,99898
2017-11-23T14:35:39.123Z,99895
2017-11-23T14:38:07.416Z,99902
2017-11-23T14:40:35.856Z,99904
2017-11-23T14:43:04.281Z,99903
2017-11-23T14:45:32.615Z,99901
2017-11-23T14:48:01.046Z,99912
2017-11-23T14:50:29.416Z,99898
2017-11-23T14:52:57.719Z,99904
2017-11-23T14:55:25.999Z,99907
2017-11-23T14:57:54.323Z,99933
2017-11-23T15:00:22.599Z,99918
2017-11-23T15:02:50.878Z,99904
2017-11-23T15:05:19.139Z,99903
2017-11-23T15:07:47.400Z,99911
2017-11-23T15:10:16.470Z,99916
2017-11-23T15:12:44.793Z,99933
2017-11-23T15:15:13.053Z,99929
2017-11-23T15:17:41.336Z,99930
2017-11-23T15:20:09.699Z,99929
2017-11-23T15:22:38.696Z,99938
2017-11-23T15:25:06.955Z,99933
2017-11-23T15:27:36.016Z,99937
2017-11-23T15:30:34.935Z,99938
2017-11-23T15:33:03.474Z,99951
2017-11-23T15:35:32.493Z,99948
2017-11-23T15:38:00.935Z,99958
2017-11-23T15:40:33.020Z,99946
2017-11-23T15:43:01.416Z,99949
2017-11-23T15:45:29.701Z,99947
2017-11-23T15:47:58.906Z,99953
2017-11-23T15:50:27.981Z,99948
2017-11-23T15:52:56.274Z,99946
2017-11-23T15:55:27.110Z,99949
2017-11-23T15:57:59.224Z,99955
2017-11-23T16:00:27.587Z,99958
2017-11-23T16:02:55.997Z,99960
2017-11-23T16:05:24.286Z,99951
2017-11-23T16:07:53.753Z,99960
2017-11-23T16:10:22.088Z,99958
2017-11-23T16:12:51.138Z,99963
2017-11-23T16:15:19.420Z,99963
2017-11-23T16:17:47.764Z,99968
2017-11-23T16:20:16.021Z,99971
2017-11-23T16:22:45.199Z,99964
2017-11-23T16:25:13.449Z,99973
2017-11-23T16:27:41.750Z,99983
2017-11-23T16:30:11.126Z,99990
2017-11-23T16:32:39.407Z,99976
2017-11-23T16:35:07.625Z,99987
2017-11-23T16:37:40.917Z,100009
2017-11-23T16:40:15.776Z,100034
2017-11-23T16:45:53.683Z,100048
2017-11-23T16:48:28.434Z,100036
2017-11-23T16:51:02.334Z,100046
2017-11-23T16:53:37.004Z,100052
2017-11-23T16:56:11.563Z,100078
2017-11-23T17:01:47.614Z,100112
2017-11-23T17:04:22.162Z,100100
2017-11-23T17:06:55.912Z,100103
2017-11-23T17:09:40.104Z,100112
2017-11-23T17:12:10.276Z,100121
2017-11-23T17:14:44.935Z,100124
2017-11-23T17:17:18.936Z,100131
2017-11-23T17:19:49.038Z,100130
2017-11-23T17:22:17.386Z,100131
2017-11-23T17:24:45.814Z,100144
2017-11-23T17:27:14.945Z,100157
2017-11-23T17:29:43.234Z,100161
2017-11-23T17:32:11.512Z,100182
2017-11-23T17:34:42.625Z,100196
2017-11-23T17:37:10.911Z,100201
2017-11-23T17:39:40.227Z,100199
2017-11-23T17:42:09.416Z,100211
2017-11-23T17:44:37.707Z,100216
2017-11-23T17:47:07.345Z,100224
2017-11-23T17:49:35.683Z,100235
2017-11-23T17:52:04.451Z,100247
2017-11-23T17:54:33.579Z,100256
2017-11-23T17:57:01.941Z,100249
2017-11-23T17:59:30.235Z,100269
2017-11-23T18:01:58.607Z,100261
2017-11-23T18:04:27.777Z,100267
2017-11-23T18:06:56.041Z,100271
2017-11-23T18:09:24.396Z,100285
2017-11-23T18:11:54.000Z,100296
2017-11-23T18:14:23.318Z,100309
2017-11-23T18:16:51.722Z,100304
2017-11-23T18:19:20.165Z,100310
2017-11-23T18:21:49.190Z,100316
2017-11-23T18:24:18.973Z,100317
2017-11-23T18:26:48.004Z,100314
2017-11-23T18:29:17.261Z,100324
2017-11-23T18:31:46.414Z,100325
2017-11-23T18:34:14.812Z,100334
2017-11-23T18:36:48.549Z,100343
2017-11-23T18:39:17.266Z,100351
2017-11-23T18:41:51.080Z,100344
2017-11-23T18:44:20.669Z,100359
2017-11-23T18:46:49.080Z,100360
2017-11-23T18:49:17.443Z,100363
2017-11-23T18:51:49.973Z,100376
2017-11-23T18:54:19.618Z,100381
2017-11-23T18:56:48.056Z,100380
2017-11-23T18:59:17.148Z,100384
2017-11-23T19:01:46.624Z,100388
2017-11-23T19:04:15.328Z,100390
2017-11-23T19:06:43.650Z,100394
2017-11-23T19:09:12.096Z,100396
2017-11-23T19:11:43.690Z,100393
2017-11-23T19:14:12.021Z,100401
2017-11-23T19:16:42.366Z,100409
2017-11-23T19:19:10.810Z,100405
2017-11-23T19:21:42.080Z,100407
2017-11-23T19:24:13.886Z,100411
2017-11-23T19:26:42.236Z,100407
2017-11-23T19:29:10.680Z,100408
2017-11-23T19:31:38.992Z,100405
2017-11-23T19:34:07.265Z,100409
2017-11-23T19:36:37.063Z,100408
2017-11-23T19:39:06.185Z,100408
2017-11-23T19:41:34.520Z,100409
2017-11-23T19:44:03.824Z,100407
2017-11-23T19:46:33.005Z,100405
2017-11-23T19:49:01.323Z,100414
2017-11-23T19:51:29.586Z,100414
2017-11-23T19:53:59.818Z,100423
2017-11-23T19:56:31.872Z,100421
2017-11-23T19:59:00.280Z,100428
2017-11-23T20:01:28.624Z,100441
2017-11-23T20:04:00.262Z,100440
2017-11-23T20:06:30.732Z,100454
2017-11-23T20:08:59.205Z,100458
2017-11-23T20:11:27.567Z,100474
2017-11-23T20:13:56.086Z,100476
2017-11-23T20:16:26.660Z,100481
2017-11-23T20:18:55.850Z,100491
2017-11-23T20:21:24.262Z,100500
2017-11-23T20:24:09.692Z,100497
2017-11-23T20:26:44.984Z,100504
2017-11-23T20:29:13.362Z,100507
2017-11-23T20:31:41.750Z,100511
2017-11-23T20:34:11.264Z,100520
2017-11-23T20:36:39.748Z,100528
2017-11-23T20:39:08.280Z,100531
2017-11-23T20:41:41.254Z,100527
2017-11-23T20:44:11.220Z,100538
2017-11-23T20:46:39.643Z,100534
2017-11-23T20:49:09.979Z,100540
2017-11-23T20:51:38.611Z,100547
2017-11-23T20:54:07.099Z,100541
2017-11-23T20:56:36.425Z,100540
2017-11-23T20:59:06.043Z,100544
2017-11-23T21:01:34.810Z,100547
2017-11-23T21:04:04.284Z,100543
2017-11-23T21:09:09.545Z,100549
2017-11-23T21:11:39.602Z,100557
2017-11-23T21:16:43.844Z,100564
2017-11-23T21:19:12.210Z,100562
2017-11-23T21:21:41.152Z,100568
2017-11-23T21:24:17.425Z,100557
2017-11-23T21:26:45.808Z,100568
2017-11-23T21:29:14.109Z,100554
2017-11-23T21:31:42.423Z,100565
2017-11-23T21:34:10.690Z,100563
2017-11-23T21:36:38.964Z,100567
2017-11-23T21:39:07.316Z,100569
2017-11-23T21:41:36.549Z,100568
2017-11-23T21:44:04.861Z,100570
2017-11-23T21:46:33.152Z,100577
2017-11-23T21:49:01.444Z,100572
2017-11-23T21:51:30.559Z,100569
2017-11-23T21:53:58.825Z,100590
2017-11-23T21:56:27.283Z,100590
2017-11-23T21:58:56.366Z,100588
2017-11-23T22:01:25.428Z,100592
2017-11-23T22:03:53.702Z,100595
2017-11-23T22:06:22.001Z,100597
2017-11-23T22:08:50.248Z,100601
2017-11-23T22:11:18.509Z,100608
2017-11-23T22:13:46.794Z,100596
2017-11-23T22:16:15.101Z,100583
2017-11-23T22:18:43.464Z,100595
2017-11-23T22:21:11.708Z,100582
2017-11-23T22:23:39.981Z,100589
2017-11-23T22:26:08.232Z,100588
2017-11-23T22:28:37.273Z,100587
2017-11-23T22:31:06.339Z,100594
2017-11-23T22:33:34.684Z,100601
2017-11-23T22:36:03.767Z,100595
2017-11-23T22:38:32.582Z,100598
2017-11-23T22:41:01.593Z,100595
2017-11-23T22:43:29.922Z,100603
2017-11-23T22:45:58.248Z,100603
2017-11-23T22:48:26.480Z,100617
2017-11-23T22:50:54.765Z,100609
2017-11-23T22:53:23.866Z,100613
2017-11-23T22:55:52.915Z,100613
2017-11-23T22:58:21.182Z,100604
2017-11-23T23:00:49.439Z,100610
2017-11-23T23:03:17.763Z,100615
2017-11-23T23:05:46.823Z,100605
2017-11-23T23:08:15.105Z,100613
2017-11-23T23:10:43.740Z,100617
2017-11-23T23:13:12.241Z,100609
2017-11-23T23:15:40.705Z,100612
2017-11-23T23:18:08.980Z,100610
2017-11-23T23:20:38.744Z,100616
2017-11-23T23:23:07.363Z,100616
2017-11-23T23:25:36.448Z,100619
2017-11-23T23:28:04.839Z,100622
2017-11-23T23:30:33.880Z,100612
2017-11-23T23:33:02.224Z,100614
2017-11-23T23:35:30.545Z,100596
2017-11-23T23:37:58.954Z,100602
2017-11-23T23:40:27.218Z,100613
2017-11-23T23:42:56.484Z,100614
2017-11-23T23:45:24.957Z,100607
2017-11-23T23:47:53.241Z,100622
2017-11-23T23:50:21.635Z,100612
2017-11-23T23:52:49.917Z,100619
2017-11-23T23:55:18.981Z,100616
2017-11-23T23:57:47.277Z,100613
